createdAt,value
2022-10-19T00:01:20.163Z,11.40
2022-10-19T00:06:26.480Z,11.40
2022-10-19T00:11:29.847Z,11.40
2022-10-19T00:16:34.773Z,11.60
2022-10-19T00:21:36.637Z,11.70
2022-10-19T00:26:38.752Z,11.80
2022-10-19T00:31:41.354Z,11.90
2022-10-19T00:36:43.501Z,12.00
2022-10-19T00:41:46.997Z,12.20
2022-10-19T00:46:48.815Z,12.20
2022-10-19T00:51:57.035Z,12.20
2022-10-19T00:56:59.734Z,12.30
2022-10-19T01:02:04.058Z,12.30
2022-10-19T01:07:07.962Z,12.40
2022-10-19T01:12:30.877Z,12.30
2022-10-19T01:17:47.887Z,12.40
2022-10-19T01:23:24.004Z,12.30
2022-10-19T01:28:32.291Z,12.30
2022-10-19T01:39:29.011Z,12.20
2022-10-19T01:44:54.334Z,12.20
2022-10-19T01:50:01.977Z,12.20
2022-10-19T01:55:05.167Z,12.20
2022-10-19T02:00:09.761Z,12.20
2022-10-19T02:05:16.600Z,12.10
2022-10-19T02:10:20.287Z,12.00
2022-10-19T02:15:25.231Z,11.90
2022-10-19T02:20:28.554Z,11.90
2022-10-19T02:25:30.441Z,11.80
2022-10-19T02:30:32.660Z,11.70
2022-10-19T02:35:34.698Z,11.80
2022-10-19T02:40:42.047Z,11.80
2022-10-19T02:45:51.031Z,11.80
2022-10-19T02:50:52.793Z,11.70
2022-10-19T02:55:54.571Z,11.70
2022-10-19T03:00:56.371Z,11.80
2022-10-19T03:05:58.186Z,11.90
2022-10-19T03:11:00.018Z,11.90
2022-10-19T03:16:12.582Z,12.00
2022-10-19T03:21:14.447Z,12.00
2022-10-19T03:26:17.807Z,11.90
2022-10-19T03:31:19.772Z,11.90
2022-10-19T03:36:27.710Z,11.90
2022-10-19T03:41:30.758Z,11.90
2022-10-19T03:46:33.808Z,11.90
2022-10-19T03:51:36.069Z,12.00
2022-10-19T03:56:38.323Z,12.00
2022-10-19T04:01:42.162Z,12.00
2022-10-19T04:06:46.408Z,11.90
2022-10-19T04:11:49.014Z,11.90
2022-10-19T04:16:50.770Z,11.70
2022-10-19T04:21:52.526Z,11.60
2022-10-19T04:26:55.754Z,11.50
2022-10-19T04:31:59.532Z,11.40
2022-10-19T04:37:01.390Z,11.30
2022-10-19T04:42:03.267Z,11.30
2022-10-19T04:47:05.017Z,11.20
2022-10-19T04:52:06.759Z,11.20
2022-10-19T04:57:08.594Z,11.10
2022-10-19T05:02:10.355Z,10.90
2022-10-19T05:07:12.111Z,10.90
2022-10-19T05:12:13.873Z,10.80
2022-10-19T05:17:15.683Z,10.80
2022-10-19T05:22:17.494Z,10.80
2022-10-19T05:27:19.371Z,10.80
2022-10-19T05:32:21.432Z,10.80
2022-10-19T05:37:23.327Z,11.00
2022-10-19T05:42:25.112Z,11.00
2022-10-19T05:47:28.793Z,11.00
2022-10-19T05:52:32.778Z,11.00
2022-10-19T05:57:34.803Z,10.90
2022-10-19T06:02:36.814Z,10.80
2022-10-19T06:07:38.552Z,10.70
2022-10-19T06:12:40.297Z,10.70
2022-10-19T06:17:42.054Z,10.60
2022-10-19T06:22:43.786Z,10.50
2022-10-19T06:27:45.589Z,10.50
2022-10-19T06:32:47.647Z,10.40
2022-10-19T06:37:49.439Z,10.50
2022-10-19T06:42:51.563Z,10.60
2022-10-19T06:47:53.371Z,10.90
2022-10-19T06:52:55.102Z,11.10
2022-10-19T06:57:59.206Z,11.30
2022-10-19T07:03:01.044Z,11.60
2022-10-19T07:08:02.888Z,11.90
2022-10-19T07:13:04.720Z,12.20
2022-10-19T07:18:06.494Z,12.50
2022-10-19T07:23:08.463Z,12.70
2022-10-19T07:28:10.304Z,12.90
2022-10-19T07:33:12.118Z,13.00
2022-10-19T07:38:13.895Z,13.00
2022-10-19T07:43:15.638Z,13.20
2022-10-19T07:48:17.366Z,13.50
2022-10-19T07:53:19.362Z,13.80
2022-10-19T07:58:21.357Z,14.10
2022-10-19T08:08:46.406Z,14.50
2022-10-19T08:13:48.353Z,14.60
2022-10-19T08:18:50.858Z,14.80
2022-10-19T08:23:52.663Z,15.10
2022-10-19T08:29:03.973Z,15.10
2022-10-19T08:34:06.499Z,15.30
2022-10-19T08:39:09.311Z,15.50
2022-10-19T08:44:26.573Z,15.70
2022-10-19T08:49:31.865Z,15.80
2022-10-19T08:54:58.561Z,15.70
2022-10-19T09:00:21.018Z,15.70
2022-10-19T09:05:38.493Z,15.70
2022-10-19T09:10:42.459Z,15.80
2022-10-19T09:15:46.796Z,15.80
2022-10-19T09:20:51.110Z,15.80
2022-10-19T09:25:53.579Z,15.90
2022-10-19T09:30:59.679Z,16.00
2022-10-19T09:36:04.584Z,16.10
2022-10-19T09:41:17.710Z,16.30
2022-10-19T09:51:53.025Z,16.40
2022-10-19T09:56:56.353Z,16.50
2022-10-19T10:02:18.946Z,16.60
2022-10-19T10:07:21.182Z,16.70
2022-10-19T10:12:23.626Z,16.80
2022-10-19T10:17:30.684Z,16.80
2022-10-19T10:22:35.706Z,17.00
2022-10-19T10:27:38.786Z,17.10
2022-10-19T10:32:48.135Z,17.20
2022-10-19T10:37:50.343Z,17.00
2022-10-19T10:42:54.843Z,17.10
2022-10-19T10:47:57.873Z,17.00
2022-10-19T10:53:00.830Z,17.20
2022-10-19T10:58:19.316Z,17.40
2022-10-19T11:03:26.509Z,17.50
2022-10-19T11:08:52.227Z,17.40
2022-10-19T11:14:14.143Z,17.40
2022-10-19T11:19:21.823Z,17.30
2022-10-19T11:25:01.820Z,17.40
2022-10-19T11:30:19.782Z,17.60
2022-10-19T11:35:37.646Z,17.80
2022-10-19T11:41:16.462Z,17.80
2022-10-19T11:46:25.113Z,17.70
2022-10-19T11:51:26.847Z,17.90
2022-10-19T11:56:44.640Z,17.90
2022-10-19T12:02:22.830Z,17.90
2022-10-19T12:07:55.775Z,17.80
2022-10-19T12:13:02.858Z,17.80
2022-10-19T12:18:14.251Z,17.90
2022-10-19T12:23:27.973Z,17.90
2022-10-19T12:28:36.075Z,17.80
2022-10-19T12:33:47.300Z,17.90
2022-10-19T12:39:17.861Z,18.00
2022-10-19T12:44:41.226Z,18.00
2022-10-19T12:49:48.744Z,18.00
2022-10-19T12:54:50.466Z,17.90
2022-10-19T13:00:01.903Z,17.70
2022-10-19T13:05:04.970Z,17.80
2022-10-19T13:10:18.589Z,17.80
2022-10-19T13:15:35.521Z,17.80
2022-10-19T13:20:53.550Z,17.80
2022-10-19T13:26:30.968Z,17.80
2022-10-19T13:31:34.015Z,17.70
2022-10-19T13:36:39.242Z,17.60
2022-10-19T13:41:49.085Z,17.70
2022-10-19T13:47:02.854Z,17.70
2022-10-19T13:52:26.541Z,17.60
2022-10-19T13:58:04.515Z,17.60
2022-10-19T14:03:43.170Z,17.50
2022-10-19T14:09:04.794Z,17.50
2022-10-19T14:14:17.842Z,17.40
2022-10-19T14:19:29.354Z,17.30
2022-10-19T14:24:36.090Z,17.10
2022-10-19T14:29:48.086Z,16.80
2022-10-19T14:34:50.598Z,16.60
2022-10-19T14:40:26.547Z,16.40
2022-10-19T14:45:32.277Z,16.20
2022-10-19T14:50:46.812Z,16.00
2022-10-19T14:55:50.551Z,15.80
2022-10-19T15:00:53.732Z,15.70
2022-10-19T15:06:02.061Z,15.50
2022-10-19T15:11:05.993Z,15.30
2022-10-19T15:16:39.335Z,15.10
2022-10-19T15:21:41.090Z,14.80
2022-10-19T15:27:01.810Z,14.70
2022-10-19T15:32:22.690Z,14.60
2022-10-19T15:42:44.321Z,14.30
2022-10-19T15:48:21.406Z,14.20
2022-10-19T15:53:23.682Z,14.00
2022-10-19T15:58:25.478Z,13.90
2022-10-19T16:03:27.289Z,13.80
2022-10-19T16:08:29.079Z,13.60
2022-10-19T16:13:31.607Z,13.50
2022-10-19T16:18:33.519Z,13.40
2022-10-19T16:23:39.421Z,13.30
2022-10-19T16:28:44.247Z,13.10
2022-10-19T16:33:45.961Z,13.00
2022-10-19T16:38:48.365Z,12.90
2022-10-19T16:43:55.403Z,12.80
2022-10-19T16:48:57.221Z,12.70
2022-10-19T16:53:59.833Z,12.60
2022-10-19T16:59:06.275Z,12.50
2022-10-19T17:04:07.998Z,12.50
2022-10-19T17:14:31.585Z,12.30
2022-10-19T17:19:33.425Z,12.20
2022-10-19T17:24:37.247Z,12.20
2022-10-19T17:29:38.982Z,12.10
2022-10-19T17:34:41.013Z,12.00
2022-10-19T17:39:42.777Z,11.90
2022-10-19T17:44:44.529Z,11.80
2022-10-19T17:49:46.338Z,11.70
2022-10-19T17:54:54.805Z,11.60
2022-10-19T18:00:09.899Z,11.60
2022-10-19T18:05:14.427Z,11.50
2022-10-19T18:10:16.309Z,11.40
2022-10-19T18:15:18.260Z,11.40
2022-10-19T18:20:20.081Z,11.30
2022-10-19T18:25:36.145Z,11.20
2022-10-19T18:30:45.248Z,11.10
2022-10-19T18:35:47.209Z,11.00
2022-10-19T18:40:49.099Z,10.90
2022-10-19T18:45:55.556Z,10.90
2022-10-19T18:50:58.071Z,10.80
2022-10-19T18:56:02.078Z,10.70
2022-10-19T19:01:13.682Z,10.70
2022-10-19T19:06:18.801Z,10.60
2022-10-19T19:11:23.518Z,10.60
2022-10-19T19:16:26.569Z,10.50
2022-10-19T19:21:30.210Z,10.50
2022-10-19T19:26:35.107Z,10.40
2022-10-19T19:31:37.070Z,10.40
2022-10-19T19:41:49.638Z,10.40
2022-10-19T19:46:51.379Z,10.30
2022-10-19T19:51:54.138Z,10.40
2022-10-19T19:56:56.086Z,10.30
2022-10-19T20:01:57.911Z,10.20
2022-10-19T20:06:59.755Z,10.20
2022-10-19T20:12:01.491Z,10.20
2022-10-19T20:17:03.259Z,10.00
2022-10-19T20:22:06.237Z,10.10
2022-10-19T20:27:08.045Z,10.10
2022-10-19T20:32:09.862Z,10.00
2022-10-19T20:37:11.611Z,10.00
2022-10-19T20:42:14.798Z,9.80
2022-10-19T20:47:18.107Z,9.80
2022-10-19T20:52:19.874Z,9.70
2022-10-19T20:57:21.662Z,9.70
2022-10-19T21:02:23.435Z,9.60
2022-10-19T21:07:25.230Z,9.50
2022-10-19T21:12:27.007Z,9.40
2022-10-19T21:17:28.752Z,9.40
2022-10-19T21:22:33.321Z,9.30
2022-10-19T21:27:37.954Z,9.20
2022-10-19T21:32:39.968Z,9.10
2022-10-19T21:37:41.849Z,9.10
2022-10-19T21:42:44.998Z,9.00
2022-10-19T21:47:46.739Z,9.00
2022-10-19T21:52:48.454Z,8.90
2022-10-19T21:57:50.236Z,9.00
2022-10-19T22:02:52.020Z,9.00
2022-10-19T22:07:53.779Z,8.90
2022-10-19T22:12:56.740Z,8.80
2022-10-19T22:17:58.471Z,8.70
2022-10-19T22:23:00.233Z,8.70
2022-10-19T22:28:02.443Z,8.60
2022-10-19T22:33:04.281Z,8.60
2022-10-19T22:38:06.021Z,8.60
2022-10-19T22:44:04.221Z,8.50
2022-10-19T22:50:20.842Z,8.50
2022-10-19T22:55:41.102Z,8.30
2022-10-19T23:00:42.891Z,8.30
2022-10-19T23:05:44.616Z,8.30
2022-10-19T23:10:46.343Z,8.30
2022-10-19T23:15:48.121Z,8.20
2022-10-19T23:21:01.070Z,8.20
2022-10-19T23:26:10.242Z,8.20
2022-10-19T23:31:15.153Z,8.00
2022-10-19T23:36:20.117Z,8.10
2022-10-19T23:41:22.375Z,8.10
2022-10-19T23:46:24.238Z,8.00
2022-10-19T23:51:26.014Z,8.00
2022-10-19T23:56:29.254Z,8.00
